Time;durP1;ratioP1;P1;durP2;ratioP2;P2;SDS_P1;SDS_P2;PMS_P1;PMS_P2;Temp;Humidity;BMP_temperature;BMP_pressure;BME280_temperature;BME280_humidity;BME280_pressure;Samples;Min_cycle;Max_cycle;Signal;HPM_P1;HPM_P2
2022/06/19 00:00:39;;;;;;;;;;;14.50;99.90;;;;;;4858229;29;20329;-85
2022/06/19 00:03:06;;;;;;;;;;;14.50;99.90;;;;;;4858533;29;19943;-86
2022/06/19 00:05:31;;;;;;;;;;;14.40;99.90;;;;;;4857982;29;19934;-85
2022/06/19 00:07:57;;;;;;;;;;;14.40;99.90;;;;;;4858383;29;20347;-86
2022/06/19 00:10:23;;;;;;;;;;;14.30;99.90;;;;;;4858393;29;20340;-87
2022/06/19 00:12:48;;;;;;;;;;;14.30;99.90;;;;;;4858893;29;20364;-87
2022/06/19 00:15:15;;;;;;;;;;;14.30;99.90;;;;;;4857174;29;19923;-87
2022/06/19 00:17:41;;;;;;;;;;;14.30;99.90;;;;;;4860919;29;19947;-86
2022/06/19 00:20:07;;;;;;;;;;;14.20;99.90;;;;;;4865775;29;20394;-85
2022/06/19 00:22:33;;;;;;;;;;;14.20;99.90;;;;;;4858091;29;19932;-86
2022/06/19 00:24:59;;;;;;;;;;;14.20;99.90;;;;;;4843315;29;20357;-86
2022/06/19 00:27:25;;;;;;;;;;;14.20;99.90;;;;;;4857807;29;19979;-87
2022/06/19 00:29:51;;;;;;;;;;;14.20;99.90;;;;;;4842425;29;19928;-86
2022/06/19 00:32:18;;;;;;;;;;;14.20;99.90;;;;;;4858018;29;19932;-87
2022/06/19 00:34:43;;;;;;;;;;;14.20;99.90;;;;;;4857867;29;19923;-86
2022/06/19 00:37:09;;;;;;;;;;;14.20;99.90;;;;;;4842263;29;19934;-87
2022/06/19 00:39:39;;;;;;;;;;;14.20;99.90;;;;;;4843997;29;19923;-86
2022/06/19 00:42:06;;;;;;;;;;;14.20;99.90;;;;;;4858975;29;20027;-86
2022/06/19 00:44:32;;;;;;;;;;;14.20;99.90;;;;;;4841818;29;19924;-86
2022/06/19 00:47:17;;;;;;;;;;;14.20;99.90;;;;;;4843166;29;19938;-86
2022/06/19 00:49:48;;;;;;;;;;;14.20;99.90;;;;;;4842739;29;20681;-86
2022/06/19 00:52:16;;;;;;;;;;;14.20;99.90;;;;;;4842283;29;20395;-86
2022/06/19 00:54:43;;;;;;;;;;;14.30;99.90;;;;;;4858438;29;19924;-86
2022/06/19 00:57:09;;;;;;;;;;;14.30;99.90;;;;;;4856782;29;20392;-86
2022/06/19 00:59:36;;;;;;;;;;;14.30;99.90;;;;;;4842588;29;19927;-86
2022/06/19 01:02:02;;;;;;;;;;;14.30;99.90;;;;;;4842484;29;19938;-86
2022/06/19 01:04:31;;;;;;;;;;;14.30;99.90;;;;;;4856908;29;19934;-86
2022/06/19 01:06:57;;;;;;;;;;;14.40;99.90;;;;;;4857770;29;19930;-85
2022/06/19 01:09:23;;;;;;;;;;;14.30;99.90;;;;;;4858894;29;19927;-85
2022/06/19 01:11:49;;;;;;;;;;;14.30;99.90;;;;;;4842663;29;20249;-86
2022/06/19 01:14:18;;;;;;;;;;;14.40;99.90;;;;;;4841789;29;19923;-86
2022/06/19 01:16:44;;;;;;;;;;;14.40;99.90;;;;;;4843103;29;20292;-85
2022/06/19 01:19:13;;;;;;;;;;;14.40;99.90;;;;;;4840496;29;19920;-85
2022/06/19 01:21:43;;;;;;;;;;;14.30;99.90;;;;;;4858207;29;19999;-85
2022/06/19 01:24:16;;;;;;;;;;;14.40;99.90;;;;;;4857213;29;19959;-85
2022/06/19 01:26:43;;;;;;;;;;;14.40;99.90;;;;;;4857203;29;19928;-85
2022/06/19 01:29:09;;;;;;;;;;;14.40;99.90;;;;;;4842233;29;19971;-86
2022/06/19 01:31:36;;;;;;;;;;;14.40;99.90;;;;;;4842417;29;19927;-86
2022/06/19 01:34:26;;;;;;;;;;;14.40;99.90;;;;;;4841439;29;19923;-85
2022/06/19 01:36:52;;;;;;;;;;;14.40;99.90;;;;;;4858107;29;19924;-85
2022/06/19 01:39:18;;;;;;;;;;;14.40;99.90;;;;;;4858882;29;20307;-86
2022/06/19 01:41:43;;;;;;;;;;;14.40;99.90;;;;;;4867099;29;19924;-86
2022/06/19 01:44:09;;;;;;;;;;;14.40;99.90;;;;;;4857753;29;19928;-86
2022/06/19 01:46:35;;;;;;;;;;;14.40;99.90;;;;;;4856826;29;19924;-86
2022/06/19 01:49:01;;;;;;;;;;;14.40;99.90;;;;;;4857716;29;19932;-86
2022/06/19 01:51:27;;;;;;;;;;;14.40;99.90;;;;;;4860037;29;19998;-86
2022/06/19 01:53:59;;;;;;;;;;;14.40;99.90;;;;;;4841814;29;19974;-86
2022/06/19 01:56:25;;;;;;;;;;;14.40;99.90;;;;;;4845230;29;20446;-86
2022/06/19 01:58:53;;;;;;;;;;;14.40;99.90;;;;;;4846124;29;19924;-86
2022/06/19 02:01:19;;;;;;;;;;;14.40;99.90;;;;;;4860014;29;19935;-86
2022/06/19 02:03:49;;;;;;;;;;;14.40;99.90;;;;;;4861394;29;19927;-86
2022/06/19 02:06:17;;;;;;;;;;;14.40;99.90;;;;;;4844575;29;20082;-86
2022/06/19 02:08:43;;;;;;;;;;;14.40;99.90;;;;;;4860849;29;20385;-86
2022/06/19 02:11:09;;;;;;;;;;;14.40;99.90;;;;;;4860947;29;20397;-86
2022/06/19 02:13:35;;;;;;;;;;;14.40;99.90;;;;;;4845473;29;19924;-85
2022/06/19 02:16:04;;;;;;;;;;;14.40;99.90;;;;;;4845135;29;20299;-86
2022/06/19 02:18:33;;;;;;;;;;;14.30;99.90;;;;;;4845185;29;19923;-86
2022/06/19 02:20:58;;;;;;;;;;;14.30;99.90;;;;;;4859923;29;19934;-86
2022/06/19 02:23:28;;;;;;;;;;;14.30;99.90;;;;;;4845238;29;20354;-86
2022/06/19 02:25:54;;;;;;;;;;;14.30;99.90;;;;;;4845460;29;19931;-86
2022/06/19 02:28:19;;;;;;;;;;;14.30;99.90;;;;;;4844482;29;19924;-86
2022/06/19 02:30:47;;;;;;;;;;;14.30;99.90;;;;;;4855618;29;19924;-86
2022/06/19 02:33:14;;;;;;;;;;;14.20;99.90;;;;;;4863398;29;20014;-85
2022/06/19 02:35:39;;;;;;;;;;;14.20;99.90;;;;;;4877023;29;20048;-86
2022/06/19 02:38:06;;;;;;;;;;;14.20;99.90;;;;;;4864345;29;19931;-86
2022/06/19 02:40:36;;;;;;;;;;;14.10;99.90;;;;;;4879422;29;19923;-86
2022/06/19 02:43:06;;;;;;;;;;;14.10;99.90;;;;;;4878230;29;19924;-85
2022/06/19 02:45:33;;;;;;;;;;;14.10;99.90;;;;;;4878129;29;20296;-86
2022/06/19 02:48:00;;;;;;;;;;;14.10;99.90;;;;;;4879980;29;20041;-86
2022/06/19 02:50:28;;;;;;;;;;;14.10;99.90;;;;;;4863061;29;19962;-86
2022/06/19 02:52:54;;;;;;;;;;;14.10;99.90;;;;;;4878752;29;19931;-86
2022/06/19 02:55:20;;;;;;;;;;;14.10;99.90;;;;;;4878027;29;19930;-86
2022/06/19 02:57:47;;;;;;;;;;;14.10;99.90;;;;;;4862109;29;19963;-86
2022/06/19 03:00:14;;;;;;;;;;;14.00;99.90;;;;;;4878159;29;20273;-86
2022/06/19 03:02:39;;;;;;;;;;;14.00;99.90;;;;;;4862751;29;19942;-86
2022/06/19 03:05:06;;;;;;;;;;;14.10;99.90;;;;;;4861362;29;19987;-86
2022/06/19 03:07:31;;;;;;;;;;;14.10;99.90;;;;;;4878485;29;20399;-85
2022/06/19 03:09:57;;;;;;;;;;;14.00;99.90;;;;;;4863610;29;19928;-86
2022/06/19 03:12:23;;;;;;;;;;;14.00;99.90;;;;;;4844594;29;19927;-86
2022/06/19 03:14:49;;;;;;;;;;;14.10;99.90;;;;;;4844063;29;19959;-86
2022/06/19 03:17:16;;;;;;;;;;;14.10;99.90;;;;;;4858342;29;20047;-85
2022/06/19 03:19:42;;;;;;;;;;;14.20;99.90;;;;;;4874794;29;19924;-86
2022/06/19 03:22:07;;;;;;;;;;;14.00;99.90;;;;;;4870002;29;19934;-86
2022/06/19 03:24:33;;;;;;;;;;;14.00;99.90;;;;;;4858462;29;20409;-86
2022/06/19 03:26:59;;;;;;;;;;;14.00;99.90;;;;;;4859010;29;19923;-86
2022/06/19 03:29:24;;;;;;;;;;;14.00;99.90;;;;;;4843511;29;19923;-86
2022/06/19 03:31:50;;;;;;;;;;;14.00;99.90;;;;;;4874968;29;19924;-86
2022/06/19 03:34:15;;;;;;;;;;;14.00;99.90;;;;;;4861181;29;19927;-85
2022/06/19 03:36:41;;;;;;;;;;;14.00;99.90;;;;;;4878343;29;19927;-86
2022/06/19 03:39:06;;;;;;;;;;;14.00;99.90;;;;;;4876492;29;19951;-86
2022/06/19 03:41:32;;;;;;;;;;;14.00;99.90;;;;;;4862422;29;19949;-86
2022/06/19 03:43:58;;;;;;;;;;;14.00;99.90;;;;;;4862156;29;20295;-85
2022/06/19 03:46:23;;;;;;;;;;;14.00;99.90;;;;;;4860827;29;19924;-85
2022/06/19 03:48:50;;;;;;;;;;;14.00;99.90;;;;;;4877718;29;19923;-86
2022/06/19 03:51:16;;;;;;;;;;;14.00;99.90;;;;;;4860622;29;20423;-87
2022/06/19 03:53:42;;;;;;;;;;;14.00;99.90;;;;;;4877438;29;19974;-89
2022/06/19 03:56:10;;;;;;;;;;;13.90;99.90;;;;;;4877738;29;19923;-87
2022/06/19 03:58:45;;;;;;;;;;;13.80;99.90;;;;;;4859230;29;20018;-88
2022/06/19 04:01:12;;;;;;;;;;;14.00;99.90;;;;;;4858470;29;19924;-87
2022/06/19 04:03:38;;;;;;;;;;;13.60;99.90;;;;;;4844094;29;20018;-87
2022/06/19 04:06:03;;;;;;;;;;;13.60;99.90;;;;;;4842830;29;20010;-87
2022/06/19 04:08:29;;;;;;;;;;;13.50;99.90;;;;;;4857923;29;19931;-87
2022/06/19 04:10:54;;;;;;;;;;;13.40;99.90;;;;;;4858830;29;19966;-86
2022/06/19 04:13:20;;;;;;;;;;;13.40;99.90;;;;;;4858081;29;19924;-87
2022/06/19 04:15:45;;;;;;;;;;;13.40;99.90;;;;;;4858159;29;19974;-87
2022/06/19 04:18:11;;;;;;;;;;;13.30;99.90;;;;;;4859155;29;19931;-87
2022/06/19 04:20:36;;;;;;;;;;;13.30;99.90;;;;;;4858418;29;20320;-87
2022/06/19 04:23:02;;;;;;;;;;;13.20;99.90;;;;;;4859378;29;19927;-88
2022/06/19 04:25:28;;;;;;;;;;;13.10;99.90;;;;;;4858817;29;19928;-87
2022/06/19 04:27:53;;;;;;;;;;;13.10;99.90;;;;;;4858885;29;19923;-87
2022/06/19 04:30:19;;;;;;;;;;;13.00;99.90;;;;;;4858268;29;19924;-87
2022/06/19 04:32:45;;;;;;;;;;;12.90;99.90;;;;;;4859920;29;19923;-88
2022/06/19 04:35:10;;;;;;;;;;;12.80;99.90;;;;;;4858343;29;20304;-87
2022/06/19 04:37:36;;;;;;;;;;;12.70;99.90;;;;;;4858492;29;19924;-87
2022/06/19 04:40:02;;;;;;;;;;;12.60;99.90;;;;;;4858407;29;20394;-88
2022/06/19 04:42:28;;;;;;;;;;;12.50;99.90;;;;;;4867184;29;20011;-88
2022/06/19 04:44:53;;;;;;;;;;;12.40;99.90;;;;;;4858281;29;19927;-88
2022/06/19 04:47:19;;;;;;;;;;;12.20;99.90;;;;;;4858289;29;19930;-88
2022/06/19 04:49:44;;;;;;;;;;;12.20;99.90;;;;;;4856977;29;19980;-88
2022/06/19 04:52:10;;;;;;;;;;;12.10;99.90;;;;;;4844686;29;19923;-86
2022/06/19 04:54:35;;;;;;;;;;;12.00;99.90;;;;;;4859452;29;19924;-87
2022/06/19 04:57:01;;;;;;;;;;;12.00;99.90;;;;;;4857713;29;19927;-87
2022/06/19 04:59:27;;;;;;;;;;;12.00;99.90;;;;;;4859283;29;19939;-87
2022/06/19 05:01:52;;;;;;;;;;;12.00;99.90;;;;;;4858266;29;19930;-86
2022/06/19 05:04:18;;;;;;;;;;;12.00;99.90;;;;;;4857370;29;19928;-87
2022/06/19 05:06:43;;;;;;;;;;;12.00;99.90;;;;;;4858198;29;19928;-87
2022/06/19 05:09:09;;;;;;;;;;;12.10;99.90;;;;;;4862492;29;19932;-86
2022/06/19 05:11:35;;;;;;;;;;;12.10;99.90;;;;;;4859236;29;19935;-87
2022/06/19 05:14:01;;;;;;;;;;;12.10;99.90;;;;;;4842578;29;20388;-88
2022/06/19 05:16:27;;;;;;;;;;;12.10;99.90;;;;;;4842245;29;19931;-87
2022/06/19 05:18:54;;;;;;;;;;;12.10;99.90;;;;;;4841954;29;20463;-87
2022/06/19 05:21:20;;;;;;;;;;;12.10;99.90;;;;;;4841091;29;19928;-86
2022/06/19 05:23:46;;;;;;;;;;;12.20;99.90;;;;;;4854983;29;19923;-86
2022/06/19 05:26:15;;;;;;;;;;;12.20;99.90;;;;;;4857322;29;19924;-87
2022/06/19 05:28:41;;;;;;;;;;;12.20;99.90;;;;;;4858315;29;19934;-87
2022/06/19 05:31:06;;;;;;;;;;;12.20;99.90;;;;;;4859834;29;19924;-87
2022/06/19 05:33:32;;;;;;;;;;;12.50;99.90;;;;;;4863404;29;19927;-87
2022/06/19 05:35:58;;;;;;;;;;;12.30;99.90;;;;;;4846804;29;19980;-86
2022/06/19 05:38:24;;;;;;;;;;;12.30;99.90;;;;;;4879817;29;19927;-87
2022/06/19 05:40:54;;;;;;;;;;;12.30;99.90;;;;;;4879783;29;19923;-86
2022/06/19 05:43:21;;;;;;;;;;;12.40;99.90;;;;;;4879592;29;20006;-86
2022/06/19 05:45:51;;;;;;;;;;;12.40;99.90;;;;;;4880168;29;19927;-86
2022/06/19 05:48:17;;;;;;;;;;;12.40;99.90;;;;;;4863482;29;19970;-86
2022/06/19 05:50:43;;;;;;;;;;;12.50;99.90;;;;;;4863878;29;19927;-87
2022/06/19 05:53:08;;;;;;;;;;;12.50;99.90;;;;;;4863236;29;20284;-86
2022/06/19 05:55:34;;;;;;;;;;;12.40;99.90;;;;;;4863295;29;19977;-86
2022/06/19 05:57:59;;;;;;;;;;;12.40;99.90;;;;;;4879768;29;19924;-86
2022/06/19 06:00:25;;;;;;;;;;;12.40;99.90;;;;;;4859612;29;19988;-86
2022/06/19 06:02:50;;;;;;;;;;;12.40;99.90;;;;;;4860695;29;19920;-86
2022/06/19 06:05:16;;;;;;;;;;;12.40;99.90;;;;;;4859684;29;19939;-86
2022/06/19 06:07:42;;;;;;;;;;;12.40;99.90;;;;;;4861859;29;19931;-86
2022/06/19 06:10:09;;;;;;;;;;;12.50;99.90;;;;;;4860372;29;19978;-86
2022/06/19 06:12:34;;;;;;;;;;;12.40;99.90;;;;;;4860302;29;19976;-86
2022/06/19 06:15:00;;;;;;;;;;;12.40;99.90;;;;;;4859596;29;19924;-86
2022/06/19 06:17:25;;;;;;;;;;;12.40;99.90;;;;;;4860478;29;19935;-86
2022/06/19 06:19:51;;;;;;;;;;;12.40;99.90;;;;;;4859475;29;20402;-86
2022/06/19 06:22:17;;;;;;;;;;;12.40;99.90;;;;;;4859242;29;19927;-86
2022/06/19 06:24:43;;;;;;;;;;;12.40;99.90;;;;;;4860576;29;19930;-86
2022/06/19 06:27:08;;;;;;;;;;;12.50;99.90;;;;;;4862142;29;19927;-85
2022/06/19 06:29:34;;;;;;;;;;;12.50;99.90;;;;;;4861196;29;20878;-86
2022/06/19 06:31:59;;;;;;;;;;;12.60;99.90;;;;;;4860258;29;19988;-86
2022/06/19 06:34:25;;;;;;;;;;;12.60;99.90;;;;;;4843672;29;19923;-87
2022/06/19 06:36:55;;;;;;;;;;;12.70;99.90;;;;;;4844944;29;19924;-90
2022/06/19 06:39:21;;;;;;;;;;;12.70;99.90;;;;;;4847403;29;19924;-86
2022/06/19 06:41:47;;;;;;;;;;;12.90;99.90;;;;;;4861134;29;19931;-86
2022/06/19 06:44:13;;;;;;;;;;;13.10;99.90;;;;;;4860528;29;19976;-86
2022/06/19 06:46:39;;;;;;;;;;;13.10;99.90;;;;;;4861560;29;19955;-85
2022/06/19 06:49:04;;;;;;;;;;;13.20;99.90;;;;;;4859857;29;19924;-86
2022/06/19 06:51:31;;;;;;;;;;;13.20;99.90;;;;;;4859816;29;20019;-85
2022/06/19 06:53:57;;;;;;;;;;;13.30;99.90;;;;;;4859941;29;19932;-86
2022/06/19 06:56:22;;;;;;;;;;;13.40;99.90;;;;;;4858826;29;20314;-88
2022/06/19 06:58:48;;;;;;;;;;;13.40;99.90;;;;;;4846449;29;20390;-87
2022/06/19 07:01:16;;;;;;;;;;;13.50;99.90;;;;;;4863557;29;19949;-89
2022/06/19 07:03:43;;;;;;;;;;;13.60;99.90;;;;;;4845541;29;19976;-89
2022/06/19 07:06:09;;;;;;;;;;;13.60;99.90;;;;;;4869488;29;19927;-88
2022/06/19 07:08:35;;;;;;;;;;;13.70;99.90;;;;;;4867908;29;19928;-88
2022/06/19 07:11:00;;;;;;;;;;;13.80;99.90;;;;;;4862831;29;19934;-89
2022/06/19 07:13:26;;;;;;;;;;;13.70;99.90;;;;;;4862235;29;19923;-88
2022/06/19 07:15:52;;;;;;;;;;;13.80;99.90;;;;;;4878145;29;19928;-87
2022/06/19 07:18:19;;;;;;;;;;;13.70;99.90;;;;;;4876974;29;19987;-89
2022/06/19 07:20:52;;;;;;;;;;;13.70;99.90;;;;;;4864053;29;20018;-89
2022/06/19 07:23:20;;;;;;;;;;;13.70;99.90;;;;;;4861547;29;19928;-89
2022/06/19 07:25:46;;;;;;;;;;;13.70;99.90;;;;;;4860923;29;19980;-88
2022/06/19 07:28:14;;;;;;;;;;;13.70;99.90;;;;;;4878551;29;19923;-90
2022/06/19 07:30:39;;;;;;;;;;;13.70;99.90;;;;;;4862743;29;19927;-89
2022/06/19 07:33:05;;;;;;;;;;;13.80;99.90;;;;;;4862470;29;19984;-90
2022/06/19 07:35:30;;;;;;;;;;;13.80;99.90;;;;;;4859488;29;19934;-89
2022/06/19 07:37:56;;;;;;;;;;;13.90;99.90;;;;;;4870037;29;20341;-89
2022/06/19 07:40:23;;;;;;;;;;;13.80;99.90;;;;;;4860188;29;19927;-89
2022/06/19 07:42:48;;;;;;;;;;;13.90;99.90;;;;;;4875440;29;19938;-90
2022/06/19 07:45:15;;;;;;;;;;;13.90;99.90;;;;;;4860689;29;19927;-90
2022/06/19 07:50:27;;;;;;;;;;;14.10;99.90;;;;;;4859355;29;20010;-90
2022/06/19 07:52:52;;;;;;;;;;;14.10;99.90;;;;;;4876902;29;19927;-89
2022/06/19 07:55:20;;;;;;;;;;;14.20;99.90;;;;;;4858905;29;19979;-89
2022/06/19 07:57:46;;;;;;;;;;;14.30;99.90;;;;;;4865607;29;19924;-89
2022/06/19 08:00:16;;;;;;;;;;;14.20;99.90;;;;;;4852537;29;19928;-91
2022/06/19 08:02:45;;;;;;;;;;;14.20;99.90;;;;;;4850568;29;19923;-90
2022/06/19 08:05:12;;;;;;;;;;;14.20;99.90;;;;;;4860427;29;20257;-90
2022/06/19 08:07:38;;;;;;;;;;;14.20;99.90;;;;;;4857172;29;19982;-90
2022/06/19 08:10:04;;;;;;;;;;;14.20;99.90;;;;;;4855507;29;19931;-91
2022/06/19 08:12:30;;;;;;;;;;;14.20;99.90;;;;;;4860078;29;19923;-91
2022/06/19 08:14:55;;;;;;;;;;;14.30;99.90;;;;;;4860148;29;20398;-91
2022/06/19 08:17:22;;;;;;;;;;;14.30;99.90;;;;;;4859877;29;20372;-90
2022/06/19 08:19:47;;;;;;;;;;;14.30;99.90;;;;;;4858969;29;19927;-90
2022/06/19 08:22:13;;;;;;;;;;;14.30;99.90;;;;;;4864202;29;19927;-90
2022/06/19 08:24:38;;;;;;;;;;;14.30;99.90;;;;;;4863065;29;19923;-91
2022/06/19 08:27:05;;;;;;;;;;;14.40;99.90;;;;;;4854391;29;20010;-90
2022/06/19 08:29:31;;;;;;;;;;;14.40;99.90;;;;;;4852622;29;19923;-89
2022/06/19 08:31:57;;;;;;;;;;;14.40;99.90;;;;;;4856177;29;19980;-88
2022/06/19 08:34:22;;;;;;;;;;;14.40;99.90;;;;;;4865502;29;20343;-87
2022/06/19 08:36:50;;;;;;;;;;;14.40;99.90;;;;;;4862063;29;19928;-87
2022/06/19 08:39:19;;;;;;;;;;;14.50;99.90;;;;;;4865626;29;19923;-87
2022/06/19 08:41:54;;;;;;;;;;;14.70;99.90;;;;;;4851853;29;20361;-87
2022/06/19 08:44:21;;;;;;;;;;;14.80;99.90;;;;;;4866127;29;19927;-87
2022/06/19 08:46:53;;;;;;;;;;;14.90;99.90;;;;;;4863246;29;19980;-86
2022/06/19 08:49:39;;;;;;;;;;;15.00;99.90;;;;;;4871136;29;19927;-86
2022/06/19 08:52:04;;;;;;;;;;;15.10;99.90;;;;;;4870128;29;19923;-86
2022/06/19 08:54:34;;;;;;;;;;;15.10;99.90;;;;;;4874118;29;19968;-86
2022/06/19 08:57:06;;;;;;;;;;;15.10;99.90;;;;;;4875601;29;19923;-86
2022/06/19 08:59:47;;;;;;;;;;;15.10;99.90;;;;;;4873588;29;20400;-86
2022/06/19 09:02:23;;;;;;;;;;;15.10;99.90;;;;;;4873854;29;19950;-87
2022/06/19 09:07:53;;;;;;;;;;;15.10;99.90;;;;;;4878573;29;19927;-86
2022/06/19 09:10:40;;;;;;;;;;;15.00;99.90;;;;;;4877523;29;20643;-87
2022/06/19 09:13:09;;;;;;;;;;;15.00;99.90;;;;;;4861001;29;19979;-86
2022/06/19 09:15:34;;;;;;;;;;;15.10;99.90;;;;;;4877125;29;20027;-86
2022/06/19 09:18:03;;;;;;;;;;;15.00;99.90;;;;;;4878098;29;20027;-86
2022/06/19 09:20:34;;;;;;;;;;;15.00;99.90;;;;;;4873466;29;19950;-86
2022/06/19 09:23:07;;;;;;;;;;;15.10;99.90;;;;;;4876308;29;19927;-86
2022/06/19 09:25:33;;;;;;;;;;;15.20;99.90;;;;;;4875825;29;19935;-86
2022/06/19 09:28:02;;;;;;;;;;;15.20;99.90;;;;;;4864682;29;20345;-86
2022/06/19 09:30:32;;;;;;;;;;;15.30;99.90;;;;;;4862592;29;19924;-86
2022/06/19 09:33:00;;;;;;;;;;;15.20;99.90;;;;;;4890644;29;19938;-86
2022/06/19 09:35:29;;;;;;;;;;;15.20;99.90;;;;;;4864140;29;19934;-86
2022/06/19 09:37:58;;;;;;;;;;;15.10;99.90;;;;;;4862066;29;19927;-87
2022/06/19 09:40:27;;;;;;;;;;;15.20;99.90;;;;;;4880296;29;19923;-86
2022/06/19 09:43:00;;;;;;;;;;;15.10;99.90;;;;;;4878298;29;19946;-87
2022/06/19 09:45:32;;;;;;;;;;;15.00;99.90;;;;;;4877773;29;19927;-85
2022/06/19 09:48:04;;;;;;;;;;;15.00;99.90;;;;;;4874855;29;19934;-85
2022/06/19 09:50:35;;;;;;;;;;;14.90;99.90;;;;;;4877154;29;19929;-86
2022/06/19 09:53:08;;;;;;;;;;;14.90;99.90;;;;;;4877761;29;20376;-86
2022/06/19 09:55:40;;;;;;;;;;;15.00;99.90;;;;;;4862865;29;19934;-86
2022/06/19 09:58:14;;;;;;;;;;;15.00;99.90;;;;;;4860755;29;19934;-86
2022/06/19 10:00:41;;;;;;;;;;;15.10;99.90;;;;;;4861021;29;19979;-85
2022/06/19 10:03:23;;;;;;;;;;;15.20;99.90;;;;;;4860882;29;19928;-86
2022/06/19 10:05:51;;;;;;;;;;;15.30;99.90;;;;;;4860910;29;19927;-85
2022/06/19 10:08:19;;;;;;;;;;;15.40;99.90;;;;;;4874376;29;20260;-85
2022/06/19 10:10:45;;;;;;;;;;;15.50;99.90;;;;;;4878989;29;19923;-85
2022/06/19 10:13:15;;;;;;;;;;;15.60;99.90;;;;;;4878450;29;19923;-85
2022/06/19 10:15:42;;;;;;;;;;;15.70;99.90;;;;;;4879486;29;19978;-85
2022/06/19 10:18:17;;;;;;;;;;;15.80;99.90;;;;;;4863692;29;19932;-85
2022/06/19 10:20:50;;;;;;;;;;;16.00;99.90;;;;;;4862393;29;19924;-85
2022/06/19 10:23:17;;;;;;;;;;;16.20;99.90;;;;;;4863762;29;20008;-85
2022/06/19 10:25:43;;;;;;;;;;;16.10;99.90;;;;;;4878937;29;19923;-86
2022/06/19 10:28:15;;;;;;;;;;;16.20;99.90;;;;;;4878620;29;19986;-86
2022/06/19 10:30:55;;;;;;;;;;;16.40;99.90;;;;;;4872410;29;19923;-87
2022/06/19 10:33:24;;;;;;;;;;;16.40;99.90;;;;;;4868277;29;19939;-87
2022/06/19 10:36:01;;;;;;;;;;;16.30;99.90;;;;;;4859881;29;19924;-87
2022/06/19 10:38:33;;;;;;;;;;;16.30;99.90;;;;;;4862008;29;19927;-87
2022/06/19 10:41:03;;;;;;;;;;;16.40;99.90;;;;;;4862736;29;19946;-87
2022/06/19 10:43:29;;;;;;;;;;;16.30;99.90;;;;;;4863489;29;20384;-86
2022/06/19 10:45:57;;;;;;;;;;;16.20;99.90;;;;;;4878405;29;19923;-87
2022/06/19 10:48:28;;;;;;;;;;;16.30;99.90;;;;;;4848263;29;20010;-86
2022/06/19 10:51:03;;;;;;;;;;;16.20;99.90;;;;;;4859245;29;19931;-87
2022/06/19 10:53:32;;;;;;;;;;;16.20;99.90;;;;;;4860602;29;19970;-86
2022/06/19 10:56:06;;;;;;;;;;;16.20;99.90;;;;;;4861776;29;19972;-88
2022/06/19 10:58:32;;;;;;;;;;;16.20;99.90;;;;;;4844107;29;19984;-89
2022/06/19 11:00:59;;;;;;;;;;;16.10;99.90;;;;;;4855701;29;19932;-89
2022/06/19 11:06:13;;;;;;;;;;;16.20;99.90;;;;;;4876935;29;20296;-92
2022/06/19 11:08:42;;;;;;;;;;;16.30;99.90;;;;;;4862079;29;20386;-89
2022/06/19 11:11:09;;;;;;;;;;;16.50;99.90;;;;;;4861600;29;20436;-90
2022/06/19 11:13:53;;;;;;;;;;;16.40;99.90;;;;;;4862206;29;20392;-91
2022/06/19 11:16:19;;;;;;;;;;;16.40;99.90;;;;;;4864115;29;19963;-93
2022/06/19 11:18:46;;;;;;;;;;;16.30;99.90;;;;;;4861750;29;19982;-89
2022/06/19 11:21:13;;;;;;;;;;;16.20;99.90;;;;;;4859928;29;20340;-89
2022/06/19 11:23:51;;;;;;;;;;;16.10;99.90;;;;;;4862476;29;19935;-90
2022/06/19 11:26:16;;;;;;;;;;;16.10;99.90;;;;;;4856742;29;19985;-89
2022/06/19 11:28:48;;;;;;;;;;;15.90;99.90;;;;;;4859961;29;19963;-89
2022/06/19 11:31:24;;;;;;;;;;;15.80;99.90;;;;;;4863888;29;20440;-92
2022/06/19 11:33:52;;;;;;;;;;;15.60;99.90;;;;;;4862026;29;19927;-91
2022/06/19 11:36:30;;;;;;;;;;;15.50;99.90;;;;;;4862417;29;20387;-91
2022/06/19 11:38:55;;;;;;;;;;;15.40;99.90;;;;;;4862660;29;19928;-90
2022/06/19 11:41:21;;;;;;;;;;;15.30;99.90;;;;;;4863118;29;20074;-90
2022/06/19 11:44:06;;;;;;;;;;;15.20;99.90;;;;;;4867459;29;20296;-90
2022/06/19 11:46:41;;;;;;;;;;;15.20;99.90;;;;;;4861843;29;20026;-89
2022/06/19 11:49:18;;;;;;;;;;;15.10;99.90;;;;;;4855072;29;20014;-89
2022/06/19 11:51:44;;;;;;;;;;;14.90;99.90;;;;;;4862407;29;19923;-90
2022/06/19 11:54:11;;;;;;;;;;;14.80;99.90;;;;;;4850529;29;19927;-88
2022/06/19 11:56:38;;;;;;;;;;;14.90;99.90;;;;;;4863721;29;19979;-89
2022/06/19 11:59:05;;;;;;;;;;;14.80;99.90;;;;;;4870788;29;19923;-89
2022/06/19 12:01:38;;;;;;;;;;;14.80;99.90;;;;;;4868431;29;19974;-89
2022/06/19 12:04:06;;;;;;;;;;;14.80;99.90;;;;;;4859385;29;19927;-89
2022/06/19 12:06:50;;;;;;;;;;;14.90;99.90;;;;;;4870146;29;19924;-89
2022/06/19 12:09:23;;;;;;;;;;;15.00;99.90;;;;;;4882315;29;19931;-89
2022/06/19 12:11:58;;;;;;;;;;;15.00;99.90;;;;;;4864192;29;19923;-89
2022/06/19 12:14:28;;;;;;;;;;;14.80;99.90;;;;;;4877930;29;19931;-90
2022/06/19 12:17:13;;;;;;;;;;;15.00;99.90;;;;;;4862560;29;19974;-89
2022/06/19 12:19:46;;;;;;;;;;;15.00;99.90;;;;;;4874077;29;19992;-89
2022/06/19 12:22:12;;;;;;;;;;;15.20;99.90;;;;;;4861260;29;19936;-89
2022/06/19 12:24:52;;;;;;;;;;;15.30;99.90;;;;;;4861890;29;19938;-88
2022/06/19 12:27:19;;;;;;;;;;;15.20;99.90;;;;;;4860089;29;20248;-89
2022/06/19 12:29:49;;;;;;;;;;;15.50;99.90;;;;;;4858164;29;19927;-89
2022/06/19 12:32:26;;;;;;;;;;;15.70;99.90;;;;;;4878003;29;20026;-89
2022/06/19 12:34:55;;;;;;;;;;;15.80;99.90;;;;;;4846397;29;20463;-90
2022/06/19 12:37:23;;;;;;;;;;;16.20;99.90;;;;;;4855702;29;19927;-88
2022/06/19 12:39:49;;;;;;;;;;;16.50;99.90;;;;;;4861074;29;20296;-89
2022/06/19 12:42:16;;;;;;;;;;;16.90;99.90;;;;;;4859661;29;20186;-88
2022/06/19 12:44:55;;;;;;;;;;;17.00;99.90;;;;;;4863442;29;19924;-88
2022/06/19 12:47:32;;;;;;;;;;;17.10;99.90;;;;;;4856842;29;20007;-89
2022/06/19 12:49:59;;;;;;;;;;;17.20;99.90;;;;;;4847277;29;20013;-89
2022/06/19 12:52:29;;;;;;;;;;;17.20;99.90;;;;;;4868452;29;19967;-90
2022/06/19 12:55:02;;;;;;;;;;;17.20;99.90;;;;;;4863348;29;20426;-89
2022/06/19 12:57:34;;;;;;;;;;;17.10;99.90;;;;;;4867681;29;20365;-91
2022/06/19 13:00:22;;;;;;;;;;;17.10;99.90;;;;;;4865952;29;19923;-89
2022/06/19 13:03:10;;;;;;;;;;;17.30;99.90;;;;;;4859597;29;20399;-90
2022/06/19 13:05:36;;;;;;;;;;;17.40;99.90;;;;;;4861551;29;20389;-90
2022/06/19 13:08:12;;;;;;;;;;;17.50;99.90;;;;;;4868319;29;19958;-90
2022/06/19 13:10:40;;;;;;;;;;;17.60;99.90;;;;;;4876967;29;19986;-90
2022/06/19 13:13:17;;;;;;;;;;;17.60;99.90;;;;;;4858777;29;20034;-91
2022/06/19 13:15:50;;;;;;;;;;;17.60;99.90;;;;;;4858323;29;20016;-90
2022/06/19 13:18:23;;;;;;;;;;;17.60;99.90;;;;;;4877968;29;19933;-89
2022/06/19 13:20:49;;;;;;;;;;;17.80;99.90;;;;;;4865793;29;19979;-89
2022/06/19 13:23:18;;;;;;;;;;;17.80;99.90;;;;;;4861155;29;19924;-90
2022/06/19 13:25:48;;;;;;;;;;;17.70;99.90;;;;;;4868744;29;19928;-90
2022/06/19 13:28:36;;;;;;;;;;;17.90;99.90;;;;;;4861942;29;19986;-89
2022/06/19 13:31:07;;;;;;;;;;;18.00;99.90;;;;;;4868556;29;19930;-89
2022/06/19 13:33:34;;;;;;;;;;;18.20;99.90;;;;;;4864033;29;19928;-89
2022/06/19 13:36:05;;;;;;;;;;;18.50;99.90;;;;;;4863507;29;19928;-90
2022/06/19 13:38:44;;;;;;;;;;;18.50;99.90;;;;;;4851303;29;19928;-91
2022/06/19 13:41:16;;;;;;;;;;;18.30;99.90;;;;;;4872001;29;20333;-90
2022/06/19 13:44:02;;;;;;;;;;;18.50;99.90;;;;;;4857228;29;19927;-91
2022/06/19 13:46:42;;;;;;;;;;;18.70;99.90;;;;;;4866387;29;19952;-90
2022/06/19 13:49:11;;;;;;;;;;;18.70;99.90;;;;;;4854801;29;19928;-90
2022/06/19 13:51:43;;;;;;;;;;;18.60;99.90;;;;;;4867093;29;20329;-89
2022/06/19 13:54:13;;;;;;;;;;;18.40;99.90;;;;;;4853406;29;20018;-92
2022/06/19 13:56:46;;;;;;;;;;;18.60;99.90;;;;;;4856816;29;19927;-86
2022/06/19 13:59:34;;;;;;;;;;;18.70;99.90;;;;;;4863215;29;19928;-93
2022/06/19 14:02:14;;;;;;;;;;;18.50;99.90;;;;;;4875484;29;19924;-91
2022/06/19 14:04:55;;;;;;;;;;;18.30;99.90;;;;;;4866591;29;19982;-94
2022/06/19 14:07:40;;;;;;;;;;;18.10;99.90;;;;;;4873233;29;19928;-90
2022/06/19 14:10:10;;;;;;;;;;;17.90;99.90;;;;;;4871613;29;19934;-92
2022/06/19 14:12:40;;;;;;;;;;;17.90;99.90;;;;;;4878739;29;20022;-92
2022/06/19 14:15:12;;;;;;;;;;;18.00;99.90;;;;;;4861046;29;19918;-94
2022/06/19 14:17:38;;;;;;;;;;;17.90;99.90;;;;;;4859246;29;20487;-91
2022/06/19 14:20:07;;;;;;;;;;;17.90;99.90;;;;;;4872973;29;19924;-94
2022/06/19 14:22:32;;;;;;;;;;;17.90;99.90;;;;;;4866927;29;19948;-91
2022/06/19 14:25:02;;;;;;;;;;;17.90;99.90;;;;;;4864053;29;20342;-94
2022/06/19 14:27:33;;;;;;;;;;;18.00;99.90;;;;;;4861552;29;20304;-91
2022/06/19 14:30:01;;;;;;;;;;;18.00;99.90;;;;;;4851880;29;19941;-92
2022/06/19 14:32:28;;;;;;;;;;;18.00;99.90;;;;;;4860504;29;19935;-87